Austin, Missouri
Current Conditions -  °F | °C
As of 11:53 AM on Friday 24 Oct 2014 (Local Time) from KOJC Reporting Station
Clear Clear  
Wind Chill: 66°   Ceiling: Unl
Heat Index: 66°   Visibility: 10mi
Dew Point: 60°   Wind: 7mph
Humidity: 81%   Direction: NA
Pressure: 30.04"   Gusts: NA
Location:  38.5148°N, 94.3768°W
Report Text: KOJC 241653Z VRB06KT 10SM CLR 19/16 A3004 RMK AO2 SLP168 T01890156
Loading
Personal Weather Stations






























Interactive Weather Map
Tropical Storm Tracking
New forecast layout! Learn more

10-Day Weather Forecast

Advertisements
Track Severe Weather on mobile